createdAt,value
2017-11-28T00:00:09.817Z,6.20
2017-11-28T00:01:09.916Z,4.40
2017-11-28T00:02:09.820Z,6.40
2017-11-28T00:03:09.933Z,4.70
2017-11-28T00:04:09.832Z,6.30
2017-11-28T00:05:09.949Z,5.20
2017-11-28T00:06:09.847Z,4.70
2017-11-28T00:07:09.961Z,7.80
2017-11-28T00:08:09.864Z,4.30
2017-11-28T00:09:11.922Z,4.60
2017-11-28T00:10:09.867Z,5.40
2017-11-28T00:11:11.974Z,4.80
2017-11-28T00:12:09.878Z,7.90
2017-11-28T00:13:10.928Z,4.90
2017-11-28T00:14:09.890Z,4.60
2017-11-28T00:15:15.645Z,9.30
2017-11-28T00:16:09.899Z,5.50
2017-11-28T00:17:10.949Z,7.00
2017-11-28T00:18:09.910Z,7.20
2017-11-28T00:19:09.939Z,5.90
2017-11-28T00:20:09.924Z,7.40
2017-11-28T00:21:10.978Z,6.50
2017-11-28T00:22:09.942Z,7.00
2017-11-28T00:23:10.992Z,10.20
2017-11-28T00:24:09.955Z,7.00
2017-11-28T00:25:14.594Z,6.00
2017-11-28T00:26:09.964Z,6.90
2017-11-28T00:27:14.607Z,8.10
2017-11-28T00:28:09.965Z,10.90
2017-11-28T00:29:10.010Z,8.50
2017-11-28T00:30:09.983Z,7.80
2017-11-28T00:31:10.021Z,5.90
2017-11-28T00:32:09.994Z,5.30
2017-11-28T00:33:20.581Z,5.40
2017-11-28T00:34:10.006Z,6.70
2017-11-28T00:35:15.576Z,5.20
2017-11-28T00:36:10.017Z,6.10
2017-11-28T00:37:11.087Z,5.00
2017-11-28T00:38:10.026Z,5.60
2017-11-28T00:39:14.578Z,6.20
2017-11-28T00:40:10.040Z,6.20
2017-11-28T00:41:17.153Z,6.90
2017-11-28T00:42:10.051Z,7.20
2017-11-28T00:43:10.105Z,5.10
2017-11-28T00:44:10.096Z,5.30
2017-11-28T00:45:10.115Z,10.10
2017-11-28T00:46:10.067Z,9.00
2017-11-28T00:47:10.128Z,5.30
2017-11-28T00:48:10.083Z,9.00
2017-11-28T00:49:12.199Z,10.00
2017-11-28T00:50:10.093Z,7.30
2017-11-28T00:51:10.155Z,6.90
2017-11-28T00:52:10.097Z,9.00
2017-11-28T00:53:12.222Z,11.00
2017-11-28T00:54:10.120Z,7.40
2017-11-28T00:55:10.183Z,8.70
2017-11-28T00:56:10.137Z,9.60
2017-11-28T00:57:15.115Z,9.10
2017-11-28T00:58:10.155Z,10.10
2017-11-28T00:59:21.037Z,7.40
2017-11-28T01:00:10.158Z,10.80
2017-11-28T01:01:15.138Z,7.20
2017-11-28T01:02:10.168Z,8.10
2017-11-28T01:03:11.263Z,7.20
2017-11-28T01:04:10.220Z,8.30
2017-11-28T01:05:16.089Z,8.00
2017-11-28T01:06:10.202Z,10.40
2017-11-28T01:07:11.289Z,8.50
2017-11-28T01:08:10.210Z,7.60
2017-11-28T01:09:10.269Z,10.70
2017-11-28T01:10:10.213Z,8.90
2017-11-28T01:11:10.287Z,8.80
2017-11-28T01:12:10.214Z,8.80
2017-11-28T01:13:12.254Z,8.70
2017-11-28T01:14:10.230Z,8.30
2017-11-28T01:15:10.320Z,8.20
2017-11-28T01:16:10.249Z,14.30
2017-11-28T01:17:10.252Z,7.70
2017-11-28T01:18:11.365Z,8.60
2017-11-28T01:19:10.265Z,13.30
2017-11-28T01:20:10.366Z,9.50
2017-11-28T01:21:10.278Z,11.60
2017-11-28T01:22:10.374Z,7.40
2017-11-28T01:23:10.288Z,9.60
2017-11-28T01:24:10.383Z,13.50
2017-11-28T01:25:10.293Z,14.40
2017-11-28T01:26:10.391Z,10.40
2017-11-28T01:27:10.305Z,9.20
2017-11-28T01:28:11.334Z,8.50
2017-11-28T01:29:10.320Z,11.70
2017-11-28T01:30:11.350Z,10.40
2017-11-28T01:31:10.351Z,9.50
2017-11-28T01:32:11.362Z,11.60
2017-11-28T01:33:10.343Z,14.40
2017-11-28T01:34:10.453Z,10.10
2017-11-28T01:35:10.357Z,10.40
2017-11-28T01:36:11.392Z,13.40
2017-11-28T01:37:10.369Z,10.90
2017-11-28T01:38:12.422Z,10.20
2017-11-28T01:39:10.381Z,9.60
2017-11-28T01:40:12.437Z,8.30
2017-11-28T01:41:10.381Z,13.10
2017-11-28T01:42:12.449Z,11.50
2017-11-28T01:43:10.392Z,13.00
2017-11-28T01:44:10.413Z,8.80
2017-11-28T01:45:10.413Z,7.90
2017-11-28T01:46:15.140Z,10.40
2017-11-28T01:47:10.418Z,14.00
2017-11-28T01:48:15.152Z,10.60
2017-11-28T01:49:10.431Z,12.40
2017-11-28T01:50:10.456Z,11.00
2017-11-28T01:51:10.445Z,10.30
2017-11-28T01:52:11.490Z,12.90
2017-11-28T01:53:10.455Z,9.90
2017-11-28T01:54:10.465Z,8.00
2017-11-28T01:55:31.487Z,9.00
2017-11-28T01:56:10.475Z,9.00
2017-11-28T01:57:11.525Z,8.60
2017-11-28T01:58:10.479Z,7.80
2017-11-28T01:59:10.567Z,7.90
2017-11-28T02:00:10.493Z,11.10
2017-11-28T02:01:10.584Z,9.90
2017-11-28T02:02:10.503Z,8.90
2017-11-28T02:03:10.582Z,10.00
2017-11-28T02:04:10.517Z,10.90
2017-11-28T02:05:10.593Z,8.00
2017-11-28T02:06:10.527Z,8.10
2017-11-28T02:07:10.605Z,11.60
2017-11-28T02:08:10.546Z,8.80
2017-11-28T02:09:10.619Z,11.90
2017-11-28T02:10:10.556Z,10.00
2017-11-28T02:11:11.659Z,10.20
2017-11-28T02:12:10.576Z,11.90
2017-11-28T02:13:10.652Z,7.90
2017-11-28T02:14:10.583Z,11.20
2017-11-28T02:15:10.662Z,7.00
2017-11-28T02:16:10.587Z,7.30
2017-11-28T02:17:10.677Z,11.20
2017-11-28T02:18:10.590Z,8.10
2017-11-28T02:19:10.631Z,9.70
2017-11-28T02:20:10.607Z,8.20
2017-11-28T02:21:10.641Z,7.30
2017-11-28T02:22:10.619Z,6.50
2017-11-28T02:23:10.653Z,8.60
2017-11-28T02:24:10.632Z,8.90
2017-11-28T02:25:10.667Z,9.10
2017-11-28T02:26:10.642Z,10.60
2017-11-28T02:27:10.680Z,10.10
2017-11-28T02:28:10.649Z,8.10
2017-11-28T02:29:10.673Z,10.80
2017-11-28T02:30:10.666Z,10.70
2017-11-28T02:31:10.694Z,7.20
2017-11-28T02:32:10.680Z,10.00
2017-11-28T02:33:10.702Z,10.90
2017-11-28T02:34:10.686Z,6.00
2017-11-28T02:35:10.714Z,10.10
2017-11-28T02:36:10.698Z,7.60
2017-11-28T02:37:10.729Z,9.60
2017-11-28T02:38:10.726Z,8.30
2017-11-28T02:39:10.746Z,7.20
2017-11-28T02:40:10.721Z,7.10
2017-11-28T02:41:10.734Z,8.70
2017-11-28T02:42:10.755Z,7.70
2017-11-28T02:43:10.743Z,10.40
2017-11-28T02:44:12.818Z,7.20
2017-11-28T02:45:10.746Z,10.30
2017-11-28T02:46:10.779Z,7.10
2017-11-28T02:47:10.769Z,8.00
2017-11-28T02:48:10.805Z,10.30
2017-11-28T02:49:10.770Z,7.50
2017-11-28T02:50:11.837Z,8.20
2017-11-28T02:51:10.774Z,7.30
2017-11-28T02:52:11.847Z,7.20
2017-11-28T02:53:10.797Z,9.00
2017-11-28T02:54:11.862Z,8.80
2017-11-28T02:55:10.813Z,10.10
2017-11-28T02:56:11.877Z,8.90
2017-11-28T02:57:10.811Z,8.10
2017-11-28T02:58:15.675Z,8.40
2017-11-28T02:59:10.827Z,9.30
2017-11-28T03:00:22.652Z,7.70
2017-11-28T03:01:10.829Z,10.60
2017-11-28T03:02:17.651Z,9.80
2017-11-28T03:03:10.843Z,8.80
2017-11-28T03:04:10.909Z,13.10
2017-11-28T03:05:10.855Z,9.60
2017-11-28T03:06:10.917Z,10.90
2017-11-28T03:07:10.868Z,10.40
2017-11-28T03:08:10.882Z,8.30
2017-11-28T03:09:10.877Z,8.90
2017-11-28T03:10:10.876Z,9.90
2017-11-28T03:11:10.953Z,8.80
2017-11-28T03:12:10.891Z,11.60
2017-11-28T03:13:13.013Z,10.80
2017-11-28T03:14:10.922Z,11.00
2017-11-28T03:15:10.914Z,14.50
2017-11-28T03:16:10.920Z,11.00
2017-11-28T03:17:17.648Z,10.30
2017-11-28T03:18:10.932Z,11.10
2017-11-28T03:19:10.936Z,12.90
2017-11-28T03:20:12.065Z,11.90
2017-11-28T03:21:10.949Z,11.90
2017-11-28T03:22:11.030Z,10.20
2017-11-28T03:23:10.960Z,11.50
2017-11-28T03:24:11.044Z,13.10
2017-11-28T03:25:10.972Z,13.40
2017-11-28T03:26:11.057Z,10.40
2017-11-28T03:27:10.981Z,14.00
2017-11-28T03:28:11.069Z,14.00
2017-11-28T03:29:10.996Z,12.30
2017-11-28T03:30:11.092Z,11.70
2017-11-28T03:31:11.008Z,11.90
2017-11-28T03:32:11.101Z,11.80
2017-11-28T03:33:11.011Z,12.20
2017-11-28T03:34:11.110Z,18.80
2017-11-28T03:35:11.030Z,10.10
2017-11-28T03:36:11.125Z,15.30
2017-11-28T03:37:11.050Z,14.90
2017-11-28T03:38:11.107Z,13.70
2017-11-28T03:39:14.569Z,11.30
2017-11-28T03:40:12.152Z,14.60
2017-11-28T03:41:11.067Z,13.70
2017-11-28T03:42:12.591Z,15.00
2017-11-28T03:43:11.089Z,14.30
2017-11-28T03:44:16.209Z,13.50
2017-11-28T03:45:11.095Z,12.80
2017-11-28T03:46:13.253Z,13.60
2017-11-28T03:47:11.095Z,11.90
2017-11-28T03:48:13.162Z,15.80
2017-11-28T03:49:11.105Z,12.60
2017-11-28T03:50:12.256Z,12.20
2017-11-28T03:51:11.115Z,19.60
2017-11-28T03:52:11.198Z,18.90
2017-11-28T03:53:11.125Z,18.30
2017-11-28T03:54:18.221Z,13.90
2017-11-28T03:55:11.136Z,15.70
2017-11-28T03:56:11.275Z,16.40
2017-11-28T03:57:11.147Z,11.60
2017-11-28T03:58:13.230Z,17.80
2017-11-28T03:59:11.182Z,17.00
2017-11-28T04:00:11.295Z,15.90
2017-11-28T04:01:11.168Z,15.10
2017-11-28T04:02:11.288Z,12.10
2017-11-28T04:03:11.184Z,15.10
2017-11-28T04:04:11.303Z,14.80
2017-11-28T04:05:11.202Z,17.60
2017-11-28T04:06:11.316Z,14.00
2017-11-28T04:07:11.212Z,15.80
2017-11-28T04:08:11.350Z,16.90
2017-11-28T04:09:11.219Z,18.30
2017-11-28T04:10:11.342Z,14.30
2017-11-28T04:11:11.225Z,19.10
2017-11-28T04:12:11.356Z,17.20
2017-11-28T04:13:11.238Z,16.30
2017-11-28T04:14:11.370Z,16.40
2017-11-28T04:15:11.238Z,16.90
2017-11-28T04:16:11.435Z,20.10
2017-11-28T04:17:11.256Z,19.10
2017-11-28T04:18:11.402Z,19.30
2017-11-28T04:19:11.305Z,24.10
2017-11-28T04:20:11.310Z,16.50
2017-11-28T04:21:11.287Z,19.70
2017-11-28T04:22:11.424Z,17.60
2017-11-28T04:23:11.304Z,17.60
2017-11-28T04:24:11.444Z,22.00
2017-11-28T04:25:11.306Z,18.90
2017-11-28T04:26:12.403Z,19.00
2017-11-28T04:27:11.321Z,19.00
2017-11-28T04:28:11.479Z,18.70
2017-11-28T04:29:11.324Z,18.50
2017-11-28T04:30:11.492Z,18.30
2017-11-28T04:31:11.340Z,22.70
2017-11-28T04:32:11.483Z,19.60
2017-11-28T04:33:11.361Z,17.90
2017-11-28T04:34:11.496Z,17.60
2017-11-28T04:35:11.362Z,21.20
2017-11-28T04:36:11.508Z,20.60
2017-11-28T04:37:11.374Z,20.40
2017-11-28T04:38:11.521Z,20.00
2017-11-28T04:39:11.388Z,22.40
2017-11-28T04:40:11.433Z,19.30
2017-11-28T04:41:11.391Z,21.00
2017-11-28T04:42:13.545Z,24.30
2017-11-28T04:43:11.404Z,21.80
2017-11-28T04:44:11.507Z,19.50
2017-11-28T04:45:11.416Z,23.50
2017-11-28T04:46:11.435Z,20.40
2017-11-28T04:47:11.426Z,23.40
2017-11-28T04:48:11.450Z,23.30
2017-11-28T04:49:11.438Z,23.30
2017-11-28T04:50:11.545Z,22.90
2017-11-28T04:51:11.444Z,23.60
2017-11-28T04:52:13.608Z,21.40
2017-11-28T04:53:11.460Z,24.20
2017-11-28T04:54:12.511Z,26.40
2017-11-28T04:55:11.470Z,21.30
2017-11-28T04:56:13.635Z,21.20
2017-11-28T04:57:11.477Z,22.70
2017-11-28T04:58:13.568Z,23.10
2017-11-28T04:59:11.486Z,21.60
2017-11-28T05:00:11.614Z,21.80
2017-11-28T05:01:11.500Z,20.90
2017-11-28T05:02:11.507Z,22.80
2017-11-28T05:03:13.682Z,22.80
2017-11-28T05:04:11.521Z,23.40
2017-11-28T05:05:11.648Z,20.20
2017-11-28T05:06:11.524Z,20.60
2017-11-28T05:07:11.663Z,19.60
2017-11-28T05:08:11.535Z,20.50
2017-11-28T05:09:11.674Z,22.70
2017-11-28T05:10:11.549Z,22.60
2017-11-28T05:11:12.714Z,22.00
2017-11-28T05:12:11.559Z,21.20
2017-11-28T05:13:16.208Z,24.80
2017-11-28T05:14:11.575Z,23.80
2017-11-28T05:15:16.234Z,22.30
2017-11-28T05:16:11.584Z,23.40
2017-11-28T05:17:11.729Z,19.00
2017-11-28T05:18:11.598Z,22.60
2017-11-28T05:19:11.648Z,22.60
2017-11-28T05:20:11.603Z,22.50
2017-11-28T05:21:11.758Z,22.10
2017-11-28T05:22:11.607Z,20.70
2017-11-28T05:23:11.771Z,21.30
2017-11-28T05:24:11.624Z,19.30
2017-11-28T05:25:11.798Z,24.70
2017-11-28T05:26:11.641Z,19.40
2017-11-28T05:27:11.802Z,20.60
2017-11-28T05:28:11.655Z,23.60
2017-11-28T05:29:11.817Z,25.90
2017-11-28T05:30:11.659Z,21.80
2017-11-28T05:31:11.669Z,23.10
2017-11-28T05:32:11.667Z,25.00
2017-11-28T05:33:11.842Z,22.80
2017-11-28T05:34:11.677Z,23.20
2017-11-28T05:35:11.856Z,25.80
2017-11-28T05:36:11.690Z,24.50
2017-11-28T05:37:11.697Z,23.30
2017-11-28T05:38:11.774Z,23.40
2017-11-28T05:39:11.709Z,25.40
2017-11-28T05:40:11.785Z,24.70
2017-11-28T05:41:11.723Z,26.10
2017-11-28T05:42:11.815Z,24.30
2017-11-28T05:43:11.729Z,21.90
2017-11-28T05:44:11.845Z,22.40
2017-11-28T05:45:11.738Z,22.80
2017-11-28T05:46:11.826Z,25.20
2017-11-28T05:47:11.760Z,24.00
2017-11-28T05:48:11.878Z,26.20
2017-11-28T05:49:11.762Z,26.80
2017-11-28T05:50:12.912Z,26.00
2017-11-28T05:51:11.770Z,30.80
2017-11-28T05:52:11.899Z,25.30
2017-11-28T05:53:11.782Z,23.70
2017-11-28T05:54:11.913Z,22.00
2017-11-28T05:55:11.796Z,24.60
2017-11-28T05:56:11.965Z,24.50
2017-11-28T05:57:11.809Z,25.30
2017-11-28T05:58:11.997Z,22.10
2017-11-28T05:59:11.822Z,27.70
2017-11-28T06:00:12.005Z,27.60
2017-11-28T06:01:11.827Z,25.00
2017-11-28T06:02:12.021Z,23.30
2017-11-28T06:03:11.837Z,19.80
2017-11-28T06:04:12.032Z,24.80
2017-11-28T06:05:11.850Z,22.10
2017-11-28T06:06:12.048Z,24.50
2017-11-28T06:07:11.862Z,26.40
2017-11-28T06:08:12.073Z,21.80
2017-11-28T06:09:11.876Z,23.40
2017-11-28T06:10:12.074Z,22.90
2017-11-28T06:11:11.890Z,25.60
2017-11-28T06:12:12.090Z,27.60
2017-11-28T06:13:11.892Z,24.80
2017-11-28T06:14:13.034Z,25.90
2017-11-28T06:15:11.905Z,23.60
2017-11-28T06:16:12.131Z,23.50
2017-11-28T06:17:11.916Z,27.40
2017-11-28T06:18:12.138Z,19.40
2017-11-28T06:19:11.924Z,23.50
2017-11-28T06:20:12.145Z,23.70
2017-11-28T06:21:11.938Z,26.80
2017-11-28T06:22:12.167Z,24.90
2017-11-28T06:23:11.936Z,22.50
2017-11-28T06:24:13.103Z,23.00
2017-11-28T06:25:11.961Z,27.90
2017-11-28T06:26:12.081Z,22.40
2017-11-28T06:27:11.970Z,24.60
2017-11-28T06:28:12.095Z,21.20
2017-11-28T06:29:11.980Z,23.00
2017-11-28T06:30:12.114Z,26.80
2017-11-28T06:31:11.991Z,24.60
2017-11-28T06:32:12.128Z,22.80
2017-11-28T06:33:11.995Z,25.70
2017-11-28T06:34:12.129Z,24.80
2017-11-28T06:35:12.012Z,29.90
2017-11-28T06:36:12.050Z,24.90
2017-11-28T06:37:12.018Z,20.90
2017-11-28T06:38:12.168Z,24.20
2017-11-28T06:39:12.033Z,28.20
2017-11-28T06:40:12.070Z,27.10
2017-11-28T06:41:12.045Z,24.40
2017-11-28T06:42:12.192Z,25.50
2017-11-28T06:43:12.052Z,21.90
2017-11-28T06:44:12.065Z,22.70
2017-11-28T06:45:12.063Z,23.10
2017-11-28T06:46:12.072Z,22.50
2017-11-28T06:47:12.074Z,20.10
2017-11-28T06:48:12.081Z,19.10
2017-11-28T06:49:12.090Z,25.90
2017-11-28T06:50:12.095Z,18.30
2017-11-28T06:51:12.101Z,23.30
2017-11-28T06:52:12.109Z,24.60
2017-11-28T06:53:12.118Z,24.40
2017-11-28T06:54:12.175Z,22.60
2017-11-28T06:55:12.125Z,21.50
2017-11-28T06:56:12.201Z,23.30
2017-11-28T06:57:12.131Z,21.60
2017-11-28T06:58:12.198Z,18.00
2017-11-28T06:59:12.139Z,19.50
2017-11-28T07:00:12.212Z,18.60
2017-11-28T07:01:12.164Z,17.00
2017-11-28T07:02:12.226Z,18.40
2017-11-28T07:03:12.161Z,16.50
2017-11-28T07:04:12.239Z,22.30
2017-11-28T07:05:12.179Z,20.40
2017-11-28T07:06:12.252Z,21.90
2017-11-28T07:07:12.178Z,17.70
2017-11-28T07:08:12.266Z,18.10
2017-11-28T07:09:12.188Z,19.40
2017-11-28T07:10:12.284Z,17.50
2017-11-28T07:11:12.207Z,22.60
2017-11-28T07:12:12.291Z,14.00
2017-11-28T07:13:12.236Z,15.90
2017-11-28T07:14:12.229Z,15.80
2017-11-28T07:15:12.311Z,16.00
2017-11-28T07:16:12.225Z,16.20
2017-11-28T07:17:12.325Z,18.60
2017-11-28T07:18:12.245Z,17.00
2017-11-28T07:19:12.339Z,16.90
2017-11-28T07:20:12.252Z,18.50
2017-11-28T07:21:12.351Z,17.40
2017-11-28T07:22:12.259Z,16.60
2017-11-28T07:23:12.366Z,17.10
2017-11-28T07:24:12.276Z,18.10
2017-11-28T07:25:12.377Z,18.30
2017-11-28T07:26:12.433Z,19.80
2017-11-28T07:27:12.395Z,15.70
2017-11-28T07:28:12.295Z,20.10
2017-11-28T07:29:12.404Z,18.30
2017-11-28T07:30:12.628Z,18.00
2017-11-28T07:31:12.420Z,16.50
2017-11-28T07:32:12.314Z,19.90
2017-11-28T07:33:12.425Z,19.00
2017-11-28T07:34:12.323Z,15.60
2017-11-28T07:35:12.438Z,13.60
2017-11-28T07:36:12.343Z,19.70
2017-11-28T07:37:12.450Z,17.50
2017-11-28T07:38:12.348Z,20.10
2017-11-28T07:39:12.464Z,15.70
2017-11-28T07:40:12.361Z,15.00
2017-11-28T07:41:12.486Z,12.60
2017-11-28T07:42:12.458Z,13.80
2017-11-28T07:43:12.487Z,12.50
2017-11-28T07:44:12.386Z,13.50
2017-11-28T07:45:12.387Z,18.00
2017-11-28T07:46:12.393Z,13.30
2017-11-28T07:47:12.417Z,17.60
2017-11-28T07:48:12.403Z,17.40
2017-11-28T07:49:12.427Z,17.30
2017-11-28T07:50:12.413Z,20.50
2017-11-28T07:51:12.504Z,17.10
2017-11-28T07:52:12.428Z,13.90
2017-11-28T07:53:12.434Z,19.30
2017-11-28T07:54:13.524Z,17.40
2017-11-28T07:55:12.442Z,14.70
2017-11-28T07:56:13.609Z,15.90
2017-11-28T07:57:12.450Z,13.00
2017-11-28T07:58:12.530Z,20.90
2017-11-28T07:59:12.469Z,16.40
2017-11-28T08:00:12.544Z,17.40
2017-11-28T08:01:12.484Z,17.40
2017-11-28T08:02:12.547Z,14.10
2017-11-28T08:03:12.482Z,13.00
2017-11-28T08:04:12.568Z,17.30
2017-11-28T08:05:12.494Z,17.80
2017-11-28T08:06:13.596Z,17.60
2017-11-28T08:07:12.506Z,16.00
2017-11-28T08:08:12.609Z,16.90
2017-11-28T08:09:12.516Z,18.00
2017-11-28T08:10:12.630Z,21.60
2017-11-28T08:11:12.524Z,17.50
2017-11-28T08:12:12.622Z,16.40
2017-11-28T08:13:12.538Z,17.50
2017-11-28T08:14:12.635Z,14.20
2017-11-28T08:15:12.552Z,13.10
2017-11-28T08:16:12.650Z,14.20
2017-11-28T08:17:12.556Z,15.80
2017-11-28T08:18:12.676Z,15.20
2017-11-28T08:19:12.572Z,16.10
2017-11-28T08:20:12.689Z,17.80
2017-11-28T08:21:12.576Z,16.00
2017-11-28T08:22:12.713Z,12.30
2017-11-28T08:23:12.588Z,16.00
2017-11-28T08:24:12.602Z,13.40
2017-11-28T08:25:12.603Z,12.90
2017-11-28T08:26:12.624Z,12.10
2017-11-28T08:27:12.628Z,13.00
2017-11-28T08:28:12.638Z,14.60
2017-11-28T08:29:12.639Z,15.00
2017-11-28T08:30:12.624Z,15.70
2017-11-28T08:31:12.629Z,19.10
2017-11-28T08:32:13.618Z,14.80
2017-11-28T08:33:12.647Z,12.70
2017-11-28T08:34:12.682Z,14.20
2017-11-28T08:35:12.658Z,16.00
2017-11-28T08:36:12.690Z,13.70
2017-11-28T08:37:12.666Z,16.50
2017-11-28T08:38:12.698Z,17.30
2017-11-28T08:39:12.681Z,13.50
2017-11-28T08:40:12.717Z,13.60
2017-11-28T08:41:12.688Z,13.90
2017-11-28T08:42:12.725Z,14.00
2017-11-28T08:43:12.697Z,12.90
2017-11-28T08:44:12.743Z,14.20
2017-11-28T08:45:12.705Z,12.50
2017-11-28T08:46:12.812Z,16.60
2017-11-28T08:47:12.719Z,13.70
2017-11-28T08:48:12.826Z,10.60
2017-11-28T08:49:12.732Z,20.80
2017-11-28T08:50:12.839Z,14.70
2017-11-28T08:51:12.743Z,13.40
2017-11-28T08:52:12.854Z,17.50
2017-11-28T08:53:12.757Z,15.80
2017-11-28T08:54:12.867Z,15.40
2017-11-28T08:55:12.761Z,14.30
2017-11-28T08:56:12.881Z,16.80
2017-11-28T08:57:12.779Z,14.70
2017-11-28T08:58:12.913Z,14.00
2017-11-28T08:59:12.791Z,16.40
2017-11-28T09:00:12.818Z,13.70
2017-11-28T09:01:12.794Z,16.70
2017-11-28T09:02:12.819Z,16.20
2017-11-28T09:03:12.810Z,17.60
2017-11-28T09:04:12.833Z,16.10
2017-11-28T09:05:12.824Z,13.10
2017-11-28T09:06:12.862Z,13.30
2017-11-28T09:07:12.829Z,16.70
2017-11-28T09:08:12.833Z,14.20
2017-11-28T09:09:12.842Z,12.60
2017-11-28T09:10:12.842Z,14.50
2017-11-28T09:11:12.863Z,10.70
2017-11-28T09:12:12.890Z,13.80
2017-11-28T09:13:12.868Z,13.60
2017-11-28T09:14:12.906Z,13.50
2017-11-28T09:15:12.875Z,16.40
2017-11-28T09:16:12.918Z,13.10
2017-11-28T09:17:12.889Z,15.50
2017-11-28T09:18:13.905Z,13.50
2017-11-28T09:19:12.895Z,11.60
2017-11-28T09:20:12.946Z,11.50
2017-11-28T09:21:12.907Z,15.10
2017-11-28T09:22:12.958Z,11.50
2017-11-28T09:23:12.912Z,13.80
2017-11-28T09:24:12.928Z,9.90
2017-11-28T09:25:12.966Z,12.70
2017-11-28T09:26:12.983Z,11.70
2017-11-28T09:27:12.938Z,13.50
2017-11-28T09:28:12.994Z,14.30
2017-11-28T09:29:12.953Z,12.20
2017-11-28T09:30:13.007Z,14.60
2017-11-28T09:31:12.971Z,14.30
2017-11-28T09:32:13.022Z,13.20
2017-11-28T09:33:12.973Z,15.80
2017-11-28T09:34:13.040Z,15.80
2017-11-28T09:35:12.982Z,15.10
2017-11-28T09:36:13.049Z,13.80
2017-11-28T09:37:12.994Z,12.60
2017-11-28T09:38:13.066Z,13.60
2017-11-28T09:39:13.005Z,17.00
2017-11-28T09:40:13.075Z,14.00
2017-11-28T09:41:13.015Z,17.80
2017-11-28T09:42:13.088Z,10.50
2017-11-28T09:43:13.020Z,9.80
2017-11-28T09:44:13.101Z,14.20
2017-11-28T09:45:13.037Z,11.10
2017-11-28T09:46:13.120Z,12.20
2017-11-28T09:47:13.051Z,16.30
2017-11-28T09:48:13.058Z,12.30
2017-11-28T09:49:13.058Z,11.90
2017-11-28T09:50:13.065Z,13.20
2017-11-28T09:51:13.151Z,12.50
2017-11-28T09:52:13.077Z,10.10
2017-11-28T09:53:13.168Z,13.30
2017-11-28T09:54:13.081Z,12.20
2017-11-28T09:55:13.184Z,11.60
2017-11-28T09:56:13.102Z,10.50
2017-11-28T09:57:13.188Z,11.70
2017-11-28T09:58:13.106Z,13.90
2017-11-28T09:59:13.205Z,12.60
2017-11-28T10:00:13.119Z,10.50
2017-11-28T10:01:13.211Z,12.50
2017-11-28T10:02:13.138Z,11.40
2017-11-28T10:03:13.237Z,10.80
2017-11-28T10:04:13.141Z,12.40
2017-11-28T10:05:13.246Z,13.30
2017-11-28T10:06:13.155Z,9.90
2017-11-28T10:07:13.264Z,8.50
2017-11-28T10:08:13.162Z,12.40
2017-11-28T10:09:13.587Z,11.60
2017-11-28T10:10:13.178Z,14.00
2017-11-28T10:11:13.294Z,15.90
2017-11-28T10:12:13.181Z,9.70
2017-11-28T10:13:13.307Z,10.90
2017-11-28T10:14:13.207Z,9.70
2017-11-28T10:15:13.315Z,14.40
2017-11-28T10:16:13.222Z,8.70
2017-11-28T10:17:13.331Z,13.80
2017-11-28T10:18:13.230Z,11.30
2017-11-28T10:19:13.345Z,12.50
2017-11-28T10:20:13.236Z,12.60
2017-11-28T10:21:13.357Z,11.40
2017-11-28T10:22:13.250Z,10.60
2017-11-28T10:23:13.366Z,12.80
2017-11-28T10:24:13.262Z,10.10
2017-11-28T10:25:13.278Z,15.40
2017-11-28T10:26:13.271Z,15.00
2017-11-28T10:27:13.294Z,13.40
2017-11-28T10:28:13.285Z,10.10
2017-11-28T10:29:13.307Z,12.20
2017-11-28T10:30:13.297Z,10.60
2017-11-28T10:31:13.324Z,12.10
2017-11-28T10:32:13.309Z,11.00
2017-11-28T10:33:13.334Z,11.60
2017-11-28T10:34:13.322Z,15.00
2017-11-28T10:35:13.346Z,11.90
2017-11-28T10:36:13.335Z,10.70
2017-11-28T10:37:13.360Z,10.20
2017-11-28T10:38:13.348Z,16.00
2017-11-28T10:39:13.370Z,10.80
2017-11-28T10:40:13.360Z,14.00
2017-11-28T10:41:13.389Z,9.10
2017-11-28T10:42:13.375Z,12.70
2017-11-28T10:43:13.405Z,9.60
2017-11-28T10:44:13.407Z,11.70
2017-11-28T10:45:13.417Z,9.30
2017-11-28T10:46:13.405Z,11.90
2017-11-28T10:47:13.411Z,15.50
2017-11-28T10:48:13.412Z,9.70
2017-11-28T10:49:13.441Z,9.40
2017-11-28T10:50:13.435Z,12.10
2017-11-28T10:51:13.552Z,14.20
2017-11-28T10:52:13.436Z,13.90
2017-11-28T10:53:13.516Z,10.20
2017-11-28T10:54:13.460Z,12.20
2017-11-28T10:55:13.469Z,9.60
2017-11-28T10:56:13.472Z,10.00
2017-11-28T10:57:13.504Z,12.70
2017-11-28T10:58:13.485Z,10.90
2017-11-28T10:59:13.617Z,11.70
2017-11-28T11:00:13.494Z,10.10
2017-11-28T11:01:13.524Z,9.90
2017-11-28T11:02:13.521Z,11.40
2017-11-28T11:03:13.538Z,10.80
2017-11-28T11:04:13.546Z,8.90
2017-11-28T11:05:13.554Z,10.80
2017-11-28T11:06:13.534Z,14.00
2017-11-28T11:07:13.563Z,13.20
2017-11-28T11:08:13.550Z,12.90
2017-11-28T11:09:13.571Z,9.80
2017-11-28T11:10:13.589Z,14.70
2017-11-28T11:11:13.604Z,10.40
2017-11-28T11:12:13.580Z,12.00
2017-11-28T11:13:13.604Z,13.20
2017-11-28T11:14:13.594Z,11.70
2017-11-28T11:15:13.624Z,10.70
2017-11-28T11:16:13.604Z,10.90
2017-11-28T11:17:13.901Z,9.10
2017-11-28T11:18:13.725Z,8.80
2017-11-28T11:19:13.641Z,15.00
2017-11-28T11:20:13.638Z,16.30
2017-11-28T11:21:13.670Z,12.40
2017-11-28T11:22:13.649Z,10.10
2017-11-28T11:23:13.666Z,9.90
2017-11-28T11:24:13.665Z,7.80
2017-11-28T11:25:13.697Z,9.00
2017-11-28T11:26:13.678Z,15.50
2017-11-28T11:27:13.814Z,9.60
2017-11-28T11:28:13.694Z,10.70
2017-11-28T11:29:13.716Z,11.60
2017-11-28T11:30:13.709Z,11.50
2017-11-28T11:31:13.731Z,14.50
2017-11-28T11:32:13.723Z,11.40
2017-11-28T11:33:13.847Z,9.20
2017-11-28T11:34:13.757Z,11.30
2017-11-28T11:35:13.856Z,11.80
2017-11-28T11:36:13.760Z,10.40
2017-11-28T11:37:13.873Z,8.10
2017-11-28T11:38:13.825Z,13.10
2017-11-28T11:39:13.886Z,10.70
2017-11-28T11:40:13.784Z,11.40
2017-11-28T11:41:13.901Z,11.70
2017-11-28T11:42:13.804Z,11.90
2017-11-28T11:43:13.905Z,10.10
2017-11-28T11:44:14.008Z,9.80
2017-11-28T11:45:13.928Z,8.70
2017-11-28T11:46:13.826Z,10.00
2017-11-28T11:47:14.367Z,9.20
2017-11-28T11:48:13.840Z,9.50
2017-11-28T11:49:13.959Z,10.40
2017-11-28T11:50:13.863Z,13.00
2017-11-28T11:51:13.978Z,9.60
2017-11-28T11:52:13.872Z,11.40
2017-11-28T11:53:13.897Z,10.00
2017-11-28T11:54:14.007Z,7.80
2017-11-28T11:55:14.041Z,14.60
2017-11-28T11:56:14.002Z,11.40
2017-11-28T11:57:13.907Z,13.90
2017-11-28T11:58:14.021Z,11.10
2017-11-28T11:59:13.925Z,12.70
2017-11-28T12:00:14.036Z,12.10
2017-11-28T12:01:13.936Z,8.60
2017-11-28T12:02:14.047Z,10.60
2017-11-28T12:03:13.963Z,8.60
2017-11-28T12:04:14.057Z,9.60
2017-11-28T12:05:13.968Z,10.80
2017-11-28T12:06:14.073Z,11.50
2017-11-28T12:07:13.996Z,9.20
2017-11-28T12:08:15.111Z,11.40
2017-11-28T12:09:14.005Z,9.70
2017-11-28T12:10:15.023Z,12.20
2017-11-28T12:11:14.020Z,16.50
2017-11-28T12:12:14.115Z,8.90
2017-11-28T12:13:14.119Z,10.30
2017-11-28T12:14:14.128Z,6.30
2017-11-28T12:15:14.049Z,14.40
2017-11-28T12:16:14.141Z,9.20
2017-11-28T12:17:14.066Z,8.60
2017-11-28T12:18:15.271Z,8.60
2017-11-28T12:19:14.231Z,10.40
2017-11-28T12:20:14.653Z,8.00
2017-11-28T12:21:14.379Z,12.90
2017-11-28T12:22:14.223Z,8.50
2017-11-28T12:23:14.160Z,9.80
2017-11-28T12:24:14.674Z,12.00
2017-11-28T12:25:14.173Z,10.00
2017-11-28T12:26:14.224Z,10.30
2017-11-28T12:27:14.781Z,11.30
2017-11-28T12:28:14.241Z,10.00
2017-11-28T12:29:14.299Z,10.10
2017-11-28T12:30:15.260Z,9.20
2017-11-28T12:31:14.450Z,8.50
2017-11-28T12:32:14.178Z,8.50
2017-11-28T12:33:14.257Z,11.20
2017-11-28T12:34:14.195Z,9.30
2017-11-28T12:35:14.277Z,11.20
2017-11-28T12:36:14.210Z,10.30
2017-11-28T12:37:14.291Z,11.30
2017-11-28T12:38:14.227Z,6.50
2017-11-28T12:39:14.298Z,9.30
2017-11-28T12:40:14.239Z,14.60
2017-11-28T12:41:14.316Z,13.90
2017-11-28T12:42:14.252Z,9.70
2017-11-28T12:43:14.328Z,11.20
2017-11-28T12:44:14.274Z,14.70
2017-11-28T12:45:14.337Z,10.40
2017-11-28T12:46:14.289Z,8.30
2017-11-28T12:47:14.356Z,8.60
2017-11-28T12:48:14.302Z,10.30
2017-11-28T12:49:14.366Z,10.70
2017-11-28T12:50:14.325Z,12.60
2017-11-28T12:51:14.395Z,7.10
2017-11-28T12:52:14.337Z,12.70
2017-11-28T12:53:14.441Z,9.40
2017-11-28T12:54:14.374Z,9.30
2017-11-28T12:55:14.452Z,12.20
2017-11-28T12:56:14.371Z,13.00
2017-11-28T12:57:14.465Z,9.20
2017-11-28T12:58:14.388Z,9.30